Time;durP1;ratioP1;P1;durP2;ratioP2;P2;SDS_P1;SDS_P2;PMS_P1;PMS_P2;Temp;Humidity;BMP_temperature;BMP_pressure;BME280_temperature;BME280_humidity;BME280_pressure;Samples;Min_cycle;Max_cycle;Signal;HPM_P1;HPM_P2
2021/12/26 00:00:58;;;;;;;11.97;7.83;;;4.00;99.90;;;;;;4987180;28;21520;-25
2021/12/26 00:03:30;;;;;;;10.13;7.40;;;3.90;99.90;;;;;;4972239;28;20199;-25
2021/12/26 00:06:06;;;;;;;13.90;8.57;;;3.90;99.90;;;;;;4975654;28;20250;-25
2021/12/26 00:08:39;;;;;;;11.63;8.10;;;3.90;99.90;;;;;;4981079;28;20222;-25
2021/12/26 00:11:06;;;;;;;11.87;8.03;;;3.90;99.90;;;;;;4971428;28;20207;-25
2021/12/26 00:13:37;;;;;;;13.17;8.30;;;3.90;99.90;;;;;;4985408;28;20211;-25
2021/12/26 00:16:05;;;;;;;11.30;8.20;;;3.90;99.90;;;;;;4970210;28;20681;-25
2021/12/26 00:18:33;;;;;;;12.83;8.20;;;3.90;99.90;;;;;;4974138;28;20673;-25
2021/12/26 00:21:03;;;;;;;11.27;7.93;;;4.00;99.90;;;;;;4971916;28;20198;-25
2021/12/26 00:23:31;;;;;;;12.50;8.13;;;4.00;99.90;;;;;;4971309;28;20219;-25
2021/12/26 00:25:58;;;;;;;11.83;8.70;;;4.00;99.90;;;;;;4984414;28;20628;-26
2021/12/26 00:28:26;;;;;;;11.77;8.50;;;4.00;99.90;;;;;;4975838;28;20199;-26
2021/12/26 00:30:57;;;;;;;13.77;8.47;;;4.00;99.90;;;;;;4971191;28;20211;-26
2021/12/26 00:33:28;;;;;;;10.20;8.60;;;4.00;99.90;;;;;;4970640;28;20266;-26
2021/12/26 00:35:57;;;;;;;12.07;8.80;;;4.00;99.90;;;;;;4983412;28;20194;-26
2021/12/26 00:38:24;;;;;;;14.97;8.97;;;4.00;99.90;;;;;;4987241;28;20569;-26
2021/12/26 00:40:51;;;;;;;12.83;8.67;;;4.00;99.90;;;;;;4976774;28;20218;-26
2021/12/26 00:43:19;;;;;;;13.53;9.10;;;4.00;99.90;;;;;;4970668;28;20342;-26
2021/12/26 00:45:47;;;;;;;17.87;9.03;;;4.00;99.90;;;;;;4970887;28;20298;-26
2021/12/26 00:48:17;;;;;;;16.97;10.03;;;4.00;99.90;;;;;;4974554;28;20845;-26
2021/12/26 00:50:44;;;;;;;18.23;10.10;;;4.00;99.90;;;;;;4971046;28;20242;-26
2021/12/26 00:53:14;;;;;;;15.17;9.83;;;4.00;99.90;;;;;;4970563;28;20329;-27
2021/12/26 00:55:42;;;;;;;16.00;10.23;;;4.00;99.90;;;;;;4987548;28;20580;-26
2021/12/26 00:58:12;;;;;;;17.53;10.10;;;4.00;99.90;;;;;;4977728;28;20207;-25
2021/12/26 01:00:42;;;;;;;18.60;10.60;;;4.00;99.90;;;;;;4976147;28;20207;-25
2021/12/26 01:03:13;;;;;;;17.10;10.17;;;4.00;99.90;;;;;;4989338;28;20740;-26
2021/12/26 01:05:43;;;;;;;19.13;10.77;;;4.00;99.90;;;;;;4979008;28;20221;-25
2021/12/26 01:08:14;;;;;;;14.57;10.10;;;4.00;99.90;;;;;;4970601;28;20203;-25
2021/12/26 01:10:49;;;;;;;15.03;10.40;;;4.00;99.90;;;;;;4982463;28;20248;-25
2021/12/26 01:15:58;;;;;;;15.20;10.63;;;4.00;99.90;;;;;;4980694;28;20210;-26
2021/12/26 01:18:30;;;;;;;18.40;11.07;;;4.00;99.90;;;;;;4991139;28;20206;-27
2021/12/26 01:21:10;;;;;;;19.83;10.30;;;4.00;99.90;;;;;;4969860;28;20641;-26
2021/12/26 01:23:39;;;;;;;14.50;10.07;;;4.00;99.90;;;;;;4969849;28;20217;-26
2021/12/26 01:26:07;;;;;;;16.20;10.70;;;4.00;99.90;;;;;;4970056;28;20504;-26
2021/12/26 01:28:39;;;;;;;15.77;10.10;;;4.10;99.90;;;;;;4987066;28;20190;-26
2021/12/26 01:31:07;;;;;;;15.87;10.23;;;4.10;99.90;;;;;;4976241;28;20739;-26
2021/12/26 01:33:35;;;;;;;17.07;10.50;;;4.00;99.90;;;;;;4971777;28;20211;-26
2021/12/26 01:36:04;;;;;;;18.80;10.57;;;4.00;99.90;;;;;;4977992;28;20553;-27
2021/12/26 01:38:31;;;;;;;17.00;10.47;;;4.10;99.90;;;;;;4980027;28;20230;-26
2021/12/26 01:41:08;;;;;;;17.07;10.93;;;4.10;99.90;;;;;;4976327;28;20224;-26
2021/12/26 01:43:40;;;;;;;16.27;10.87;;;4.10;99.90;;;;;;4969699;28;20234;-26
2021/12/26 01:46:08;;;;;;;18.17;10.87;;;4.10;99.90;;;;;;4970119;28;20246;-26
2021/12/26 01:48:35;;;;;;;16.30;11.67;;;4.00;99.90;;;;;;4971524;28;20293;-26
2021/12/26 01:51:06;;;;;;;17.53;10.77;;;4.10;99.90;;;;;;4970130;28;20661;-26
2021/12/26 01:53:37;;;;;;;19.17;11.90;;;4.10;99.90;;;;;;4983522;28;20309;-26
2021/12/26 01:56:12;;;;;;;17.97;11.80;;;4.10;99.90;;;;;;4980428;28;20214;-26
2021/12/26 01:58:40;;;;;;;17.07;10.90;;;4.10;99.90;;;;;;4979812;28;20253;-26
2021/12/26 02:01:13;;;;;;;17.00;11.27;;;4.10;99.90;;;;;;4980051;28;20297;-26
2021/12/26 02:03:41;;;;;;;18.00;11.60;;;4.10;99.90;;;;;;4987200;28;20217;-26
2021/12/26 02:06:11;;;;;;;18.87;11.17;;;4.10;99.90;;;;;;4973484;28;20217;-26
2021/12/26 02:08:41;;;;;;;19.93;11.60;;;4.10;99.90;;;;;;4987319;28;20228;-26
2021/12/26 02:11:08;;;;;;;16.50;11.60;;;4.10;99.90;;;;;;4978125;28;20253;-26
2021/12/26 02:13:40;;;;;;;18.20;11.03;;;4.10;99.90;;;;;;4983946;28;20227;-26
2021/12/26 02:16:12;;;;;;;18.13;11.30;;;4.10;99.90;;;;;;4986266;28;20213;-26
2021/12/26 02:18:42;;;;;;;21.43;12.00;;;4.10;99.90;;;;;;4975531;28;20256;-26
2021/12/26 02:24:15;;;;;;;22.07;11.80;;;4.20;99.90;;;;;;4978466;28;20222;-26
2021/12/26 02:29:30;;;;;;;20.00;11.50;;;4.20;99.90;;;;;;4979456;28;20273;-26
2021/12/26 02:31:59;;;;;;;17.70;12.17;;;4.20;99.90;;;;;;4970140;28;20210;-26
2021/12/26 02:34:26;;;;;;;17.90;11.80;;;4.20;99.90;;;;;;4984773;28;20655;-26
2021/12/26 02:36:53;;;;;;;22.30;12.50;;;4.20;99.90;;;;;;4980323;28;20618;-26
2021/12/26 02:39:21;;;;;;;20.23;11.63;;;4.20;99.90;;;;;;4970852;28;20217;-26
2021/12/26 02:41:48;;;;;;;19.60;11.73;;;4.20;99.90;;;;;;4969298;28;20346;-26
2021/12/26 02:44:15;;;;;;;18.50;11.83;;;4.20;99.90;;;;;;4984896;28;20216;-26
2021/12/26 02:46:43;;;;;;;17.20;12.00;;;4.20;99.90;;;;;;4983197;28;20206;-26
2021/12/26 02:49:11;;;;;;;17.20;11.97;;;4.20;99.90;;;;;;4982663;28;20199;-26
2021/12/26 02:51:38;;;;;;;18.73;12.00;;;4.30;99.90;;;;;;4982998;28;20599;-26
2021/12/26 02:54:08;;;;;;;17.33;11.60;;;4.30;99.90;;;;;;4968694;28;20238;-26
2021/12/26 02:56:38;;;;;;;19.40;11.70;;;4.30;99.90;;;;;;4971347;28;20328;-26
2021/12/26 02:59:05;;;;;;;18.60;11.93;;;4.30;99.90;;;;;;4968766;28;20254;-26
2021/12/26 03:01:35;;;;;;;18.73;12.20;;;4.30;99.90;;;;;;4968666;28;20209;-26
2021/12/26 03:04:04;;;;;;;16.63;11.73;;;4.30;99.90;;;;;;4982479;28;20244;-26
2021/12/26 03:06:42;;;;;;;17.30;11.90;;;4.40;99.90;;;;;;4973660;28;20302;-26
2021/12/26 03:09:12;;;;;;;16.67;11.33;;;4.40;99.90;;;;;;4976206;28;20221;-26
2021/12/26 03:11:39;;;;;;;15.00;11.27;;;4.40;99.90;;;;;;4979430;28;20771;-27
2021/12/26 03:14:12;;;;;;;14.70;11.53;;;4.40;99.90;;;;;;4971953;28;20203;-26
2021/12/26 03:16:50;;;;;;;15.20;11.00;;;4.40;99.90;;;;;;4970493;28;20199;-26
2021/12/26 03:19:18;;;;;;;16.73;12.17;;;4.40;99.90;;;;;;4972571;28;20609;-26
2021/12/26 03:21:53;;;;;;;14.43;10.73;;;4.40;99.90;;;;;;4974391;28;20306;-26
2021/12/26 03:24:20;;;;;;;13.27;10.90;;;4.40;99.90;;;;;;4973028;28;20206;-26
2021/12/26 03:26:56;;;;;;;13.97;11.23;;;4.40;99.90;;;;;;4984744;28;20202;-26
2021/12/26 03:29:24;;;;;;;13.73;10.43;;;4.40;99.90;;;;;;4987619;28;20630;-26
2021/12/26 03:31:51;;;;;;;12.77;10.70;;;4.40;99.90;;;;;;4974222;28;20199;-26
2021/12/26 03:34:18;;;;;;;12.10;10.20;;;4.40;99.90;;;;;;4978797;28;20640;-26
2021/12/26 03:36:50;;;;;;;15.87;10.73;;;4.40;99.90;;;;;;4972456;28;20203;-26
2021/12/26 03:39:17;;;;;;;14.03;10.97;;;4.40;99.90;;;;;;4980517;28;20352;-26
2021/12/26 03:41:45;;;;;;;14.17;10.80;;;4.40;99.90;;;;;;4985933;28;20296;-25
2021/12/26 03:44:12;;;;;;;15.37;11.60;;;4.40;99.90;;;;;;4971528;28;20290;-26
2021/12/26 03:46:40;;;;;;;13.87;11.10;;;4.40;99.90;;;;;;4976086;28;20211;-26
2021/12/26 03:49:08;;;;;;;14.53;11.60;;;4.40;99.90;;;;;;4985862;28;20237;-26
2021/12/26 03:51:36;;;;;;;14.47;11.80;;;4.40;99.90;;;;;;4988920;28;20662;-26
2021/12/26 03:54:05;;;;;;;13.13;11.17;;;4.40;99.90;;;;;;4972615;28;20299;-26
2021/12/26 03:56:33;;;;;;;13.50;10.83;;;4.50;99.90;;;;;;4986573;28;20270;-26
2021/12/26 03:59:00;;;;;;;14.93;11.77;;;4.50;99.90;;;;;;4972338;28;20213;-26
2021/12/26 04:01:29;;;;;;;12.63;10.73;;;4.50;99.90;;;;;;4976941;28;20558;-26
2021/12/26 04:03:57;;;;;;;14.57;11.53;;;4.50;99.90;;;;;;4972478;28;20223;-26
2021/12/26 04:06:24;;;;;;;15.37;11.70;;;4.50;99.90;;;;;;4971923;28;20863;-26
2021/12/26 04:08:54;;;;;;;14.47;11.13;;;4.50;99.90;;;;;;4982215;28;20628;-26
2021/12/26 04:11:22;;;;;;;14.67;11.37;;;4.50;99.90;;;;;;4985181;28;20237;-26
2021/12/26 04:13:49;;;;;;;14.43;11.97;;;4.50;99.90;;;;;;4971451;28;20195;-25
2021/12/26 04:16:17;;;;;;;14.77;12.30;;;4.40;99.90;;;;;;4988028;28;20225;-25
2021/12/26 04:18:47;;;;;;;16.90;13.00;;;4.50;99.90;;;;;;4979895;28;20262;-25
2021/12/26 04:21:14;;;;;;;18.60;13.90;;;4.50;99.90;;;;;;4971907;28;20221;-25
2021/12/26 04:23:41;;;;;;;16.50;13.83;;;4.50;99.90;;;;;;4971588;28;20205;-25
2021/12/26 04:26:11;;;;;;;17.13;13.77;;;4.50;99.90;;;;;;4971105;28;20325;-25
2021/12/26 04:28:43;;;;;;;18.00;13.70;;;4.50;99.90;;;;;;4970902;28;21021;-25
2021/12/26 04:31:10;;;;;;;16.73;13.30;;;4.50;99.90;;;;;;4975148;28;20229;-25
2021/12/26 04:33:38;;;;;;;15.70;12.33;;;4.50;99.90;;;;;;4971619;28;20515;-25
2021/12/26 04:36:08;;;;;;;15.93;12.47;;;4.50;99.90;;;;;;4971339;28;20306;-25
2021/12/26 04:38:35;;;;;;;15.70;12.43;;;4.50;99.90;;;;;;4971442;28;20589;-25
2021/12/26 04:41:05;;;;;;;15.90;12.93;;;4.50;99.90;;;;;;4978035;28;20205;-25
2021/12/26 04:43:35;;;;;;;14.50;12.03;;;4.50;99.90;;;;;;4980662;28;20298;-25
2021/12/26 04:46:05;;;;;;;14.00;12.30;;;4.50;99.90;;;;;;4971047;28;20298;-25
2021/12/26 04:48:37;;;;;;;14.80;11.90;;;4.50;99.90;;;;;;4969784;28;20210;-25
2021/12/26 04:51:07;;;;;;;14.07;11.47;;;4.50;99.90;;;;;;4979847;28;20715;-25
2021/12/26 04:53:36;;;;;;;15.33;12.47;;;4.50;99.90;;;;;;4970989;28;20236;-25
2021/12/26 04:56:05;;;;;;;14.97;11.73;;;4.50;99.90;;;;;;4978224;28;20630;-25
2021/12/26 04:58:32;;;;;;;13.93;11.80;;;4.50;99.90;;;;;;4971902;28;20677;-25
2021/12/26 05:01:05;;;;;;;14.77;11.77;;;4.60;99.90;;;;;;4972376;28;20310;-25
2021/12/26 05:03:33;;;;;;;15.27;11.93;;;4.60;99.90;;;;;;4980387;28;20233;-25
2021/12/26 05:06:01;;;;;;;16.23;12.50;;;4.60;99.90;;;;;;4988434;28;20198;-25
2021/12/26 05:08:28;;;;;;;16.60;12.43;;;4.60;99.90;;;;;;4970547;28;20217;-25
2021/12/26 05:10:58;;;;;;;14.43;12.23;;;4.60;99.90;;;;;;4974613;28;20636;-25
2021/12/26 05:13:25;;;;;;;15.10;12.60;;;4.60;99.90;;;;;;4975119;28;20209;-25
2021/12/26 05:15:52;;;;;;;14.60;12.50;;;4.60;99.90;;;;;;4972014;28;20211;-25
2021/12/26 05:18:21;;;;;;;15.13;12.67;;;4.60;99.90;;;;;;4970693;28;20199;-25
2021/12/26 05:20:49;;;;;;;18.87;13.43;;;4.60;99.90;;;;;;4971284;28;20234;-25
2021/12/26 05:23:16;;;;;;;15.13;12.63;;;4.60;99.90;;;;;;4970323;28;20206;-25
2021/12/26 05:25:43;;;;;;;16.20;13.00;;;4.60;99.90;;;;;;4971576;28;20195;-25
2021/12/26 05:28:12;;;;;;;14.83;12.83;;;4.60;99.90;;;;;;4970792;28;20207;-25
2021/12/26 05:30:40;;;;;;;15.77;12.57;;;4.60;99.90;;;;;;4970891;28;20780;-25
2021/12/26 05:33:07;;;;;;;17.30;13.50;;;4.60;99.90;;;;;;4981283;28;20229;-25
2021/12/26 05:35:35;;;;;;;15.57;12.23;;;4.60;99.90;;;;;;4974022;28;20199;-25
2021/12/26 05:38:02;;;;;;;15.07;12.47;;;4.70;99.90;;;;;;4970475;28;20225;-25
2021/12/26 05:40:30;;;;;;;14.40;12.27;;;4.70;99.90;;;;;;4981157;28;20226;-25
2021/12/26 05:42:57;;;;;;;15.50;12.73;;;4.70;99.90;;;;;;4976230;28;20615;-25
2021/12/26 05:45:24;;;;;;;13.70;11.87;;;4.70;99.90;;;;;;4974467;28;20256;-25
2021/12/26 05:47:52;;;;;;;15.00;13.17;;;4.70;99.90;;;;;;4971076;28;20218;-25
2021/12/26 05:50:20;;;;;;;17.83;13.50;;;4.70;99.90;;;;;;4969765;28;20226;-25
2021/12/26 05:52:50;;;;;;;16.17;13.17;;;4.70;99.90;;;;;;4973117;28;20348;-25
2021/12/26 05:55:18;;;;;;;14.90;12.90;;;4.70;99.90;;;;;;4973177;28;20663;-25
2021/12/26 05:57:45;;;;;;;16.13;13.60;;;4.70;99.90;;;;;;4969341;28;20837;-25
2021/12/26 06:00:16;;;;;;;15.53;13.17;;;4.70;99.90;;;;;;4977367;28;20206;-25
2021/12/26 06:02:49;;;;;;;17.63;14.20;;;4.80;99.90;;;;;;4977837;28;20677;-25
2021/12/26 06:05:19;;;;;;;16.83;13.67;;;4.80;99.90;;;;;;4983138;28;20206;-25
2021/12/26 06:07:52;;;;;;;16.97;13.43;;;4.80;99.90;;;;;;4976899;28;20223;-25
2021/12/26 06:10:21;;;;;;;18.70;13.33;;;4.80;99.90;;;;;;4987139;28;20234;-25
2021/12/26 06:12:52;;;;;;;17.63;13.47;;;4.80;99.90;;;;;;4981579;28;20286;-25
2021/12/26 06:15:22;;;;;;;17.23;13.13;;;4.80;99.90;;;;;;4975664;28;20265;-25
2021/12/26 06:17:49;;;;;;;17.77;13.70;;;4.80;99.90;;;;;;4986021;28;20206;-25
2021/12/26 06:20:16;;;;;;;16.37;13.10;;;4.80;99.90;;;;;;4981588;28;20205;-25
2021/12/26 06:22:46;;;;;;;17.50;13.77;;;4.80;99.90;;;;;;4986862;28;20704;-25
2021/12/26 06:25:16;;;;;;;17.10;13.90;;;4.80;99.90;;;;;;4985165;28;20206;-25
2021/12/26 06:27:43;;;;;;;16.03;13.40;;;4.80;99.90;;;;;;4982731;28;20264;-25
2021/12/26 06:30:12;;;;;;;15.73;13.13;;;4.80;99.90;;;;;;4983361;28;20206;-25
2021/12/26 06:32:45;;;;;;;17.07;14.00;;;4.80;99.90;;;;;;4976701;28;20213;-25
2021/12/26 06:35:13;;;;;;;17.47;13.80;;;4.80;99.90;;;;;;4986907;28;20490;-25
2021/12/26 06:37:43;;;;;;;17.57;13.97;;;4.90;99.90;;;;;;4981762;28;20219;-25
2021/12/26 06:40:12;;;;;;;16.53;13.63;;;4.90;99.90;;;;;;4970475;28;20309;-25
2021/12/26 06:42:44;;;;;;;17.63;14.00;;;4.90;99.90;;;;;;4968264;28;20203;-25
2021/12/26 06:45:16;;;;;;;18.67;14.47;;;4.90;99.90;;;;;;4968420;28;20628;-25
2021/12/26 06:47:50;;;;;;;16.20;14.00;;;4.90;99.90;;;;;;4983245;28;20300;-25
2021/12/26 06:50:19;;;;;;;16.77;13.73;;;4.90;99.90;;;;;;4979509;28;20222;-25
2021/12/26 06:52:48;;;;;;;17.43;13.70;;;4.90;99.90;;;;;;4971147;28;20235;-25
2021/12/26 06:55:17;;;;;;;17.47;14.10;;;4.90;99.90;;;;;;4971750;28;20744;-25
2021/12/26 06:57:44;;;;;;;15.67;13.23;;;4.90;99.90;;;;;;4969418;28;20205;-25
2021/12/26 07:00:14;;;;;;;17.17;13.77;;;4.90;99.90;;;;;;4973214;28;20524;-25
2021/12/26 07:02:42;;;;;;;17.20;14.50;;;4.90;99.90;;;;;;4988009;28;20579;-25
2021/12/26 07:05:12;;;;;;;18.33;15.00;;;4.90;99.90;;;;;;4977451;28;20213;-25
2021/12/26 07:07:41;;;;;;;16.63;13.67;;;5.00;99.90;;;;;;4986488;28;20679;-25
2021/12/26 07:10:09;;;;;;;18.27;15.03;;;5.00;99.90;;;;;;4973969;28;20209;-25
2021/12/26 07:12:37;;;;;;;16.47;14.33;;;5.00;99.90;;;;;;4966528;28;20617;-25
2021/12/26 07:15:08;;;;;;;17.57;14.70;;;5.00;99.90;;;;;;4969002;28;20305;-25
2021/12/26 07:17:35;;;;;;;17.43;14.47;;;5.00;99.90;;;;;;4977628;28;20509;-25
2021/12/26 07:20:04;;;;;;;17.13;14.33;;;5.00;99.90;;;;;;4995484;28;20206;-25
2021/12/26 07:22:31;;;;;;;17.50;14.37;;;5.00;99.90;;;;;;4983969;28;20399;-25
2021/12/26 07:24:58;;;;;;;18.17;14.23;;;5.00;99.90;;;;;;4968394;28;20226;-25
2021/12/26 07:27:26;;;;;;;17.67;13.83;;;5.00;99.90;;;;;;4976481;28;20607;-25
2021/12/26 07:29:53;;;;;;;18.43;14.03;;;5.00;99.90;;;;;;4978271;28;20755;-25
2021/12/26 07:32:20;;;;;;;17.60;14.67;;;5.10;99.90;;;;;;4977324;28;20697;-25
2021/12/26 07:34:47;;;;;;;17.73;13.70;;;5.10;99.90;;;;;;4970264;28;20214;-25
2021/12/26 07:37:17;;;;;;;17.30;13.57;;;5.10;99.90;;;;;;4983946;28;20588;-25
2021/12/26 07:39:47;;;;;;;17.67;14.67;;;5.10;99.90;;;;;;4977932;28;20321;-25
2021/12/26 07:42:14;;;;;;;18.83;14.63;;;5.10;99.90;;;;;;4978244;28;20301;-25
2021/12/26 07:44:41;;;;;;;18.03;14.87;;;5.10;99.90;;;;;;4974188;28;20229;-25
2021/12/26 07:47:11;;;;;;;18.77;14.27;;;5.10;99.90;;;;;;4977401;28;20234;-25
2021/12/26 07:49:41;;;;;;;19.10;15.33;;;5.10;99.90;;;;;;4977698;28;20261;-25
2021/12/26 07:52:13;;;;;;;19.87;15.03;;;5.10;99.90;;;;;;4992088;28;20226;-25
2021/12/26 07:54:42;;;;;;;16.87;13.43;;;5.10;99.90;;;;;;4980969;28;20245;-25
2021/12/26 07:57:09;;;;;;;18.07;14.67;;;5.10;99.90;;;;;;4969021;28;20662;-25
2021/12/26 07:59:37;;;;;;;18.83;14.73;;;5.10;99.90;;;;;;4969491;28;20246;-25
2021/12/26 08:02:05;;;;;;;18.73;14.50;;;5.10;99.90;;;;;;4968407;28;20995;-25
2021/12/26 08:04:32;;;;;;;18.63;14.70;;;5.10;99.90;;;;;;4982294;28;20592;-25
2021/12/26 08:07:00;;;;;;;18.70;14.67;;;5.10;99.90;;;;;;4974508;28;20219;-25
2021/12/26 08:09:27;;;;;;;15.37;13.57;;;5.10;99.90;;;;;;4982695;28;20211;-25
2021/12/26 08:11:55;;;;;;;19.53;14.70;;;5.10;99.90;;;;;;4974697;28;20226;-25
2021/12/26 08:14:27;;;;;;;20.00;14.63;;;5.10;99.90;;;;;;4982437;28;20256;-25
2021/12/26 08:16:54;;;;;;;18.67;14.87;;;5.10;99.90;;;;;;4972359;28;20576;-25
2021/12/26 08:19:29;;;;;;;18.23;15.17;;;5.10;99.90;;;;;;4972456;28;20203;-25
2021/12/26 08:21:56;;;;;;;19.40;15.10;;;5.10;99.90;;;;;;4970966;28;20199;-25
2021/12/26 08:24:26;;;;;;;20.50;14.80;;;5.10;99.90;;;;;;4975569;28;20230;-25
2021/12/26 08:26:54;;;;;;;19.77;14.87;;;5.20;99.90;;;;;;4981894;28;20291;-25
2021/12/26 08:29:23;;;;;;;19.27;14.60;;;5.20;99.90;;;;;;4971339;28;20206;-25
2021/12/26 08:31:54;;;;;;;17.57;14.70;;;5.20;99.90;;;;;;4984728;28;20639;-25
2021/12/26 08:34:23;;;;;;;16.87;14.17;;;5.20;99.90;;;;;;4984197;28;20218;-25
2021/12/26 08:37:01;;;;;;;19.10;16.10;;;5.20;99.90;;;;;;4982850;28;20229;-25
2021/12/26 08:39:37;;;;;;;18.13;15.53;;;5.20;99.90;;;;;;4977293;28;20194;-25
2021/12/26 08:42:08;;;;;;;19.73;15.80;;;5.30;99.90;;;;;;4979152;28;20283;-25
2021/12/26 08:44:38;;;;;;;18.60;15.93;;;5.30;99.90;;;;;;4990626;28;20233;-25
2021/12/26 08:47:08;;;;;;;18.17;15.40;;;5.30;99.90;;;;;;4972838;28;20214;-25
2021/12/26 08:49:36;;;;;;;18.37;14.77;;;5.30;99.90;;;;;;4970622;28;20290;-25
2021/12/26 08:52:06;;;;;;;20.63;15.37;;;5.30;99.90;;;;;;4982993;28;20254;-25
2021/12/26 08:54:35;;;;;;;18.70;15.13;;;5.30;99.90;;;;;;4979625;28;20213;-25
2021/12/26 08:57:06;;;;;;;19.97;15.13;;;5.40;99.90;;;;;;4977450;28;20390;-25
2021/12/26 08:59:34;;;;;;;18.87;15.03;;;5.30;99.90;;;;;;4978641;28;20217;-25
2021/12/26 09:02:07;;;;;;;18.83;15.40;;;5.40;99.90;;;;;;4973812;28;20213;-25
2021/12/26 09:04:36;;;;;;;20.23;15.67;;;5.40;99.90;;;;;;4966728;28;20568;-25
2021/12/26 09:07:08;;;;;;;17.87;15.03;;;5.40;99.90;;;;;;4980787;28;20215;-25
2021/12/26 09:09:36;;;;;;;18.43;15.67;;;5.40;99.90;;;;;;4972735;28;20298;-25
2021/12/26 09:12:04;;;;;;;19.63;15.20;;;5.40;99.90;;;;;;4973836;28;20222;-25
2021/12/26 09:14:34;;;;;;;20.33;16.10;;;5.50;99.90;;;;;;4981614;28;20203;-25
2021/12/26 09:17:02;;;;;;;19.47;15.57;;;5.50;99.90;;;;;;4972901;28;20209;-25
2021/12/26 09:19:30;;;;;;;19.70;15.23;;;5.60;99.90;;;;;;4980780;28;20203;-25
2021/12/26 09:21:59;;;;;;;18.60;14.73;;;5.60;99.90;;;;;;4973040;28;20832;-25
2021/12/26 09:24:29;;;;;;;18.40;15.43;;;5.60;99.90;;;;;;4970363;28;20305;-25
2021/12/26 09:26:57;;;;;;;20.77;15.30;;;5.70;99.90;;;;;;4972752;28;20205;-25
2021/12/26 09:29:24;;;;;;;20.27;15.60;;;5.70;99.90;;;;;;4972751;28;20213;-25
2021/12/26 09:31:53;;;;;;;19.60;15.27;;;5.70;99.90;;;;;;4968858;28;20296;-25
2021/12/26 09:34:21;;;;;;;20.40;16.07;;;5.80;99.90;;;;;;4967583;28;20803;-25
2021/12/26 09:36:51;;;;;;;21.10;16.90;;;5.80;99.90;;;;;;4970472;28;20206;-25
2021/12/26 09:39:18;;;;;;;21.33;16.27;;;5.90;99.90;;;;;;4970217;28;20207;-25
2021/12/26 09:41:45;;;;;;;19.13;15.87;;;5.90;99.90;;;;;;4970738;28;20227;-25
2021/12/26 09:44:22;;;;;;;19.57;15.30;;;5.90;99.90;;;;;;4965010;28;20641;-26
2021/12/26 09:46:50;;;;;;;19.43;15.13;;;6.00;99.90;;;;;;4968198;28;20641;-26
2021/12/26 09:49:22;;;;;;;18.70;14.67;;;6.00;99.90;;;;;;4965094;28;20254;-26
2021/12/26 09:51:52;;;;;;;18.37;15.00;;;6.10;99.90;;;;;;4968234;28;20253;-26
2021/12/26 09:54:20;;;;;;;19.43;15.40;;;6.10;99.90;;;;;;4971909;28;20206;-26
2021/12/26 09:56:47;;;;;;;19.70;14.70;;;6.20;99.90;;;;;;4968712;28;20209;-26
2021/12/26 09:59:22;;;;;;;22.33;15.63;;;6.20;99.90;;;;;;4971767;28;20222;-26
2021/12/26 10:01:55;;;;;;;18.50;14.53;;;6.20;99.90;;;;;;4982673;28;20210;-26
2021/12/26 10:04:47;;;;;;;17.27;14.30;;;6.30;99.90;;;;;;4980998;28;20217;-25
2021/12/26 10:07:22;;;;;;;19.37;15.13;;;6.40;99.90;;;;;;4975462;28;20591;-26
2021/12/26 10:09:51;;;;;;;20.30;15.23;;;6.40;99.90;;;;;;4968579;28;20705;-26
2021/12/26 10:12:20;;;;;;;20.10;15.23;;;6.50;99.90;;;;;;4968739;28;20237;-26
2021/12/26 10:14:52;;;;;;;19.20;15.10;;;6.50;99.90;;;;;;4969154;28;20210;-26
2021/12/26 10:17:28;;;;;;;19.37;14.27;;;6.60;99.90;;;;;;4980418;28;20217;-26
2021/12/26 10:20:09;;;;;;;17.30;14.93;;;6.60;99.90;;;;;;4968939;28;20651;-26
2021/12/26 10:22:37;;;;;;;17.80;13.90;;;6.70;99.90;;;;;;4969339;28;20214;-26
2021/12/26 10:25:11;;;;;;;17.63;14.33;;;6.70;99.90;;;;;;4969265;28;20294;-26
2021/12/26 10:27:41;;;;;;;17.17;14.30;;;6.80;99.90;;;;;;4973238;28;20328;-26
2021/12/26 10:30:15;;;;;;;17.27;13.90;;;6.80;99.90;;;;;;4977445;28;20203;-26
2021/12/26 10:32:42;;;;;;;16.47;13.87;;;6.90;99.90;;;;;;4981670;28;20265;-26
2021/12/26 10:35:17;;;;;;;18.00;14.97;;;6.90;99.90;;;;;;4972773;28;20210;-26
2021/12/26 10:37:48;;;;;;;18.93;14.73;;;6.90;99.90;;;;;;4969037;28;20214;-26
2021/12/26 10:40:21;;;;;;;17.27;14.33;;;6.90;99.90;;;;;;4966360;28;20265;-26
2021/12/26 10:42:55;;;;;;;17.97;14.70;;;7.00;99.90;;;;;;4974531;28;20202;-26
2021/12/26 10:45:26;;;;;;;17.70;14.30;;;7.00;99.90;;;;;;4967918;28;20301;-26
2021/12/26 10:47:57;;;;;;;21.27;15.73;;;7.00;99.90;;;;;;4967225;28;20232;-26
2021/12/26 10:50:26;;;;;;;17.97;14.60;;;7.00;99.90;;;;;;4967410;28;20202;-26
2021/12/26 10:52:58;;;;;;;19.23;14.63;;;7.00;99.90;;;;;;4969198;28;20244;-26
2021/12/26 10:55:41;;;;;;;19.40;14.10;;;7.00;99.90;;;;;;4967869;28;20202;-26
2021/12/26 10:58:13;;;;;;;17.30;14.37;;;7.10;99.90;;;;;;4975272;28;20205;-26
2021/12/26 11:00:48;;;;;;;16.67;14.50;;;7.10;99.90;;;;;;4967767;28;20243;-26
2021/12/26 11:03:24;;;;;;;18.13;14.23;;;7.20;99.90;;;;;;4967451;28;20210;-26
2021/12/26 11:06:01;;;;;;;18.07;14.63;;;7.20;99.90;;;;;;4968970;28;20282;-26
2021/12/26 11:08:35;;;;;;;16.93;13.77;;;7.20;99.90;;;;;;4964384;28;20620;-26
2021/12/26 11:11:18;;;;;;;16.10;13.43;;;7.30;99.90;;;;;;4970233;28;20296;-26
2021/12/26 11:13:46;;;;;;;18.23;14.80;;;7.30;99.90;;;;;;4984223;28;20572;-26
2021/12/26 11:16:15;;;;;;;16.30;13.63;;;7.30;99.90;;;;;;4967393;28;20198;-26
2021/12/26 11:18:52;;;;;;;18.03;14.20;;;7.40;99.90;;;;;;4971862;28;20210;-26
2021/12/26 11:21:22;;;;;;;16.60;13.77;;;7.40;99.90;;;;;;4968906;28;20259;-26
2021/12/26 11:23:50;;;;;;;17.37;14.30;;;7.40;99.90;;;;;;4968547;28;20640;-26
2021/12/26 11:26:20;;;;;;;16.97;13.73;;;7.50;99.90;;;;;;4967806;28;20231;-26
2021/12/26 11:28:50;;;;;;;18.43;14.53;;;7.60;99.90;;;;;;4974876;28;20682;-26
2021/12/26 11:31:27;;;;;;;17.03;12.93;;;7.60;99.90;;;;;;4969776;28;20254;-26
2021/12/26 11:34:00;;;;;;;16.03;13.40;;;7.60;99.90;;;;;;4967313;28;20277;-26
2021/12/26 11:36:29;;;;;;;16.10;13.70;;;7.70;99.90;;;;;;4977454;28;20222;-26
2021/12/26 11:38:57;;;;;;;17.77;13.60;;;7.70;99.90;;;;;;4975543;28;20210;-26
2021/12/26 11:41:40;;;;;;;18.33;13.53;;;7.70;99.90;;;;;;4974928;28;20203;-26
2021/12/26 11:44:19;;;;;;;16.37;13.17;;;7.70;99.90;;;;;;4975133;28;20238;-26
2021/12/26 11:47:26;;;;;;;15.83;13.03;;;7.70;99.90;;;;;;4969936;28;20252;-26
2021/12/26 11:50:11;;;;;;;17.97;13.80;;;7.70;99.90;;;;;;4968665;28;20206;-26
2021/12/26 11:52:57;;;;;;;16.63;13.10;;;7.70;99.90;;;;;;4988134;28;20683;-26
2021/12/26 11:55:42;;;;;;;16.13;13.87;;;7.80;99.90;;;;;;4995511;28;20202;-26
2021/12/26 11:58:42;;;;;;;18.23;13.80;;;7.80;99.90;;;;;;4987315;28;20207;-26
2021/12/26 12:01:14;;;;;;;15.17;12.87;;;7.80;99.90;;;;;;4967629;28;20672;-26
2021/12/26 12:03:42;;;;;;;17.93;13.90;;;7.80;99.90;;;;;;4978954;28;20206;-26
2021/12/26 12:06:27;;;;;;;18.00;13.67;;;7.80;99.90;;;;;;4970696;28;20219;-26
2021/12/26 12:08:55;;;;;;;18.10;13.90;;;7.80;99.90;;;;;;4981581;28;20216;-26
2021/12/26 12:11:23;;;;;;;15.73;13.00;;;7.80;99.90;;;;;;4983200;28;20246;-26
2021/12/26 12:13:55;;;;;;;16.67;13.70;;;7.90;99.90;;;;;;4979248;28;20230;-26
2021/12/26 12:16:22;;;;;;;17.60;13.70;;;7.90;99.90;;;;;;4987158;28;20661;-26
2021/12/26 12:18:55;;;;;;;15.70;13.20;;;7.90;99.90;;;;;;4986790;28;20574;-26
2021/12/26 12:21:48;;;;;;;15.93;13.37;;;7.90;99.90;;;;;;4970207;28;20729;-26
2021/12/26 12:24:30;;;;;;;17.67;13.50;;;8.00;99.90;;;;;;4976720;28;20234;-26
2021/12/26 12:27:07;;;;;;;18.30;14.10;;;8.00;99.90;;;;;;4990448;28;20286;-25
2021/12/26 12:29:53;;;;;;;17.87;13.73;;;8.00;99.90;;;;;;4988695;28;20641;-25
2021/12/26 12:32:25;;;;;;;18.03;14.10;;;8.00;99.90;;;;;;4977105;28;20238;-25
2021/12/26 12:34:58;;;;;;;17.63;14.10;;;8.00;99.90;;;;;;4971543;28;20207;-25
2021/12/26 12:37:48;;;;;;;17.07;14.10;;;8.10;99.90;;;;;;4971278;28;20205;-25
2021/12/26 12:40:30;;;;;;;17.47;14.53;;;8.10;99.90;;;;;;4971330;28;20233;-25
2021/12/26 12:43:08;;;;;;;16.87;13.23;;;8.10;99.90;;;;;;4970426;28;20237;-25
2021/12/26 12:46:04;;;;;;;18.30;14.07;;;8.10;99.90;;;;;;4982119;28;20217;-25
2021/12/26 12:49:01;;;;;;;19.53;15.20;;;8.10;99.90;;;;;;4978961;28;20203;-25
2021/12/26 12:51:33;;;;;;;16.53;13.47;;;8.20;99.90;;;;;;4977373;28;20567;-25
2021/12/26 12:54:16;;;;;;;17.57;13.83;;;8.20;99.90;;;;;;4969086;28;20784;-25
2021/12/26 12:56:47;;;;;;;17.37;13.33;;;8.20;99.90;;;;;;4970992;28;20219;-25
2021/12/26 12:59:20;;;;;;;16.17;13.70;;;8.20;99.90;;;;;;4987421;28;20763;-25
2021/12/26 13:01:57;;;;;;;17.37;13.97;;;8.30;99.90;;;;;;4985547;28;20258;-25
2021/12/26 13:04:45;;;;;;;15.73;12.27;;;8.30;99.90;;;;;;4979454;28;20194;-25